TimeMST,TemperatureF,Dew PointF,Humidity,Sea Level PressureIn,VisibilityMPH,Wind Direction,Wind SpeedMPH,Gust SpeedMPH,PrecipitationIn,Events,Conditions,WindDirDegrees,DateUTC
12:55 AM,42.1,21.0,43,30.27,10.0,Calm,Calm,-,N/A,,Clear,0,2013-01-05 07:55:00
1:55 AM,43.0,18.0,37,30.27,10.0,Calm,Calm,-,N/A,,Clear,0,2013-01-05 08:55:00
2:55 AM,42.1,18.0,38,30.28,10.0,NE,3.5,-,N/A,,Clear,50,2013-01-05 09:55:00
3:55 AM,42.1,17.1,37,30.28,10.0,NNE,3.5,-,N/A,,Clear,30,2013-01-05 10:55:00
4:55 AM,41.0,17.1,38,30.28,10.0,NE,4.6,-,N/A,,Clear,50,2013-01-05 11:55:00
5:55 AM,41.0,16.0,36,30.29,10.0,NE,3.5,-,N/A,,Clear,40,2013-01-05 12:55:00
6:55 AM,39.9,16.0,38,30.30,10.0,ENE,3.5,-,N/A,,Clear,60,2013-01-05 13:55:00
7:55 AM,39.9,16.0,38,30.32,10.0,NE,5.8,-,N/A,,Clear,40,2013-01-05 14:55:00
8:55 AM,44.1,14.0,30,30.33,10.0,NE,8.1,-,N/A,,Clear,40,2013-01-05 15:55:00
9:55 AM,48.0,15.1,27,30.35,10.0,NE,10.4,-,N/A,,Clear,40,2013-01-05 16:55:00
10:55 AM,54.0,16.0,22,30.34,10.0,NNE,8.1,-,N/A,,Clear,30,2013-01-05 17:55:00
11:55 AM,57.9,15.1,19,30.32,10.0,NNE,8.1,-,N/A,,Clear,20,2013-01-05 18:55:00
12:55 PM,60.1,12.9,16,30.28,10.0,NE,8.1,-,N/A,,Partly Cloudy,50,2013-01-05 19:55:00
1:55 PM,63.0,15.1,16,30.25,10.0,NNE,8.1,-,N/A,,Partly Cloudy,20,2013-01-05 20:55:00
2:55 PM,64.0,12.9,14,30.24,10.0,North,5.8,-,N/A,,Partly Cloudy,350,2013-01-05 21:55:00
3:55 PM,64.0,12.9,14,30.22,10.0,North,6.9,-,N/A,,Partly Cloudy,10,2013-01-05 22:55:00
4:55 PM,63.0,14.0,15,30.21,10.0,North,5.8,-,N/A,,Partly Cloudy,10,2013-01-05 23:55:00
5:55 PM,59.0,17.1,20,30.21,10.0,North,3.5,-,N/A,,Scattered Clouds,350,2013-01-06 00:55:00
6:55 PM,55.0,14.0,20,30.21,10.0,North,5.8,-,N/A,,Scattered Clouds,360,2013-01-06 01:55:00
7:55 PM,53.1,14.0,21,30.20,10.0,North,5.8,-,N/A,,Partly Cloudy,10,2013-01-06 02:55:00
8:55 PM,51.1,14.0,23,30.21,10.0,North,4.6,-,N/A,,Partly Cloudy,350,2013-01-06 03:55:00
9:55 PM,48.0,17.1,29,30.21,10.0,Calm,Calm,-,N/A,,Partly Cloudy,0,2013-01-06 04:55:00
10:55 PM,44.1,19.0,37,30.21,10.0,Calm,Calm,-,N/A,,Partly Cloudy,0,2013-01-06 05:55:00
11:55 PM,44.1,21.0,40,30.19,10.0,Calm,Calm,-,N/A,,Scattered Clouds,0,2013-01-06 06:55:00